createdAt,value
2018-01-03T00:01:00.253Z,33.9
2018-01-03T00:02:01.647Z,34.0
2018-01-03T00:03:03.035Z,33.8
2018-01-03T00:04:04.424Z,33.8
2018-01-03T00:05:05.814Z,34.2
2018-01-03T00:06:07.199Z,33.9
2018-01-03T00:07:08.591Z,34.0
2018-01-03T00:08:09.980Z,33.9
2018-01-03T00:09:11.371Z,34.0
2018-01-03T00:10:12.758Z,34.2
2018-01-03T00:11:14.147Z,33.9
2018-01-03T00:12:15.541Z,33.8
2018-01-03T00:13:16.929Z,34.0
2018-01-03T00:14:18.320Z,33.9
2018-01-03T00:15:19.711Z,34.2
2018-01-03T00:16:21.104Z,33.9
2018-01-03T00:17:22.488Z,34.0
2018-01-03T00:18:23.878Z,33.9
2018-01-03T00:19:25.270Z,34.1
2018-01-03T00:20:26.657Z,33.8
2018-01-03T00:21:28.044Z,33.9
2018-01-03T00:22:29.436Z,33.9
2018-01-03T00:23:30.827Z,33.7
2018-01-03T00:24:32.213Z,34.0
2018-01-03T00:25:33.601Z,33.8
2018-01-03T00:26:34.992Z,33.9
2018-01-03T00:27:36.384Z,33.9
2018-01-03T00:28:37.777Z,34.1
2018-01-03T00:29:39.164Z,33.8
2018-01-03T00:30:40.561Z,33.9
2018-01-03T00:31:41.952Z,34.2
2018-01-03T00:32:43.339Z,33.9
2018-01-03T00:33:44.733Z,33.7
2018-01-03T00:34:46.120Z,33.9
2018-01-03T00:35:47.508Z,33.9
2018-01-03T00:36:48.894Z,34.1
2018-01-03T00:37:50.282Z,33.9
2018-01-03T00:38:51.668Z,33.9
2018-01-03T00:39:53.055Z,33.9
2018-01-03T00:40:54.450Z,34.2
2018-01-03T00:41:55.837Z,34.1
2018-01-03T00:42:57.209Z,34.1
2018-01-03T00:43:58.592Z,33.9
2018-01-03T00:44:59.998Z,33.9
2018-01-03T00:46:01.382Z,33.7
2018-01-03T00:47:02.753Z,33.9
2018-01-03T00:48:04.131Z,33.9
2018-01-03T00:49:05.506Z,33.8
2018-01-03T00:50:06.897Z,34.0
2018-01-03T00:51:08.280Z,33.9
2018-01-03T00:52:09.664Z,33.9
2018-01-03T00:53:11.049Z,34.2
2018-01-03T00:54:12.430Z,34.0
2018-01-03T00:55:13.815Z,34.1
2018-01-03T00:56:15.188Z,34.1
2018-01-03T00:57:16.569Z,33.8
2018-01-03T00:58:17.954Z,34.1
2018-01-03T00:59:19.340Z,34.1
2018-01-03T01:00:20.726Z,34.2
2018-01-03T01:01:22.105Z,33.8
2018-01-03T01:02:23.478Z,34.1
2018-01-03T01:03:24.856Z,34.1
2018-01-03T01:04:26.244Z,33.7
2018-01-03T01:05:27.629Z,33.9
2018-01-03T01:06:29.012Z,34.1
2018-01-03T01:07:30.398Z,34.0
2018-01-03T01:08:31.777Z,34.2
2018-01-03T01:09:33.168Z,34.1
2018-01-03T01:10:34.548Z,34.2
2018-01-03T01:11:35.921Z,33.9
2018-01-03T01:12:37.301Z,34.3
2018-01-03T01:13:38.687Z,34.1
2018-01-03T01:14:40.072Z,34.1
2018-01-03T01:15:41.453Z,34.0
2018-01-03T01:16:42.835Z,34.1
2018-01-03T01:17:44.256Z,34.2
2018-01-03T01:18:45.589Z,34.0
2018-01-03T01:19:46.972Z,33.7
2018-01-03T01:20:48.363Z,33.9
2018-01-03T01:21:49.739Z,33.8
2018-01-03T01:22:51.119Z,34.0
2018-01-03T01:23:52.500Z,33.9
2018-01-03T01:24:53.879Z,34.1
2018-01-03T01:25:55.260Z,34.1
2018-01-03T01:26:56.636Z,34.0
2018-01-03T01:27:58.029Z,34.1
2018-01-03T01:28:59.398Z,34.0
2018-01-03T01:30:00.813Z,34.1
2018-01-03T01:31:02.170Z,33.9
2018-01-03T01:32:03.548Z,34.1
2018-01-03T01:33:04.933Z,34.3
2018-01-03T01:34:06.321Z,33.7
2018-01-03T01:35:07.703Z,34.2
2018-01-03T01:36:09.076Z,34.2
2018-01-03T01:37:10.449Z,33.7
2018-01-03T01:38:11.841Z,34.1
2018-01-03T01:39:13.221Z,34.2
2018-01-03T01:40:14.608Z,34.2
2018-01-03T01:41:15.989Z,34.2
2018-01-03T01:42:17.380Z,34.1
2018-01-03T01:43:18.759Z,34.0
2018-01-03T01:44:20.133Z,33.9
2018-01-03T01:45:21.516Z,34.0
2018-01-03T01:46:22.898Z,33.7
2018-01-03T01:47:24.280Z,34.1
2018-01-03T01:48:25.653Z,34.2
2018-01-03T01:49:27.049Z,34.2
2018-01-03T01:50:28.427Z,34.3
2018-01-03T01:51:29.807Z,34.2
2018-01-03T01:52:31.187Z,33.9
2018-01-03T01:53:32.566Z,34.0
2018-01-03T01:54:33.954Z,33.8
2018-01-03T01:55:35.339Z,33.9
2018-01-03T01:56:36.730Z,33.8
2018-01-03T01:57:38.095Z,34.0
2018-01-03T01:58:39.480Z,34.1
2018-01-03T01:59:40.852Z,34.0
2018-01-03T02:00:42.234Z,34.1
2018-01-03T02:01:43.620Z,34.2
2018-01-03T02:02:45.000Z,34.1
2018-01-03T02:03:46.380Z,33.8
2018-01-03T02:04:47.754Z,34.4
2018-01-03T02:05:49.134Z,33.8
2018-01-03T02:06:50.507Z,33.9
2018-01-03T02:07:51.890Z,34.0
2018-01-03T02:08:53.266Z,34.0
2018-01-03T02:09:54.650Z,34.0
2018-01-03T02:10:56.029Z,33.5
2018-01-03T02:11:57.405Z,33.9
2018-01-03T02:12:58.789Z,33.9
2018-01-03T02:14:00.168Z,33.8
2018-01-03T02:15:01.541Z,33.9
2018-01-03T02:16:02.928Z,34.1
2018-01-03T02:17:04.315Z,33.9
2018-01-03T02:18:05.702Z,33.9
2018-01-03T02:19:07.076Z,33.6
2018-01-03T02:20:08.457Z,33.9
2018-01-03T02:21:09.839Z,34.1
2018-01-03T02:22:11.228Z,33.6
2018-01-03T02:23:12.611Z,34.0
2018-01-03T02:24:13.990Z,33.9
2018-01-03T02:25:15.378Z,34.0
2018-01-03T02:26:16.760Z,33.9
2018-01-03T02:27:18.154Z,34.2
2018-01-03T02:28:19.531Z,33.8
2018-01-03T02:29:20.912Z,34.2
2018-01-03T02:30:22.300Z,33.7
2018-01-03T02:31:23.681Z,33.8
2018-01-03T02:32:25.055Z,33.7
2018-01-03T02:33:26.438Z,34.0
2018-01-03T02:34:27.818Z,33.9
2018-01-03T02:35:29.202Z,34.0
2018-01-03T02:36:30.596Z,34.1
2018-01-03T02:37:31.981Z,34.1
2018-01-03T02:38:33.381Z,34.3
2018-01-03T02:39:34.769Z,34.2
2018-01-03T02:40:36.158Z,34.2
2018-01-03T02:41:37.552Z,33.8
2018-01-03T02:42:38.940Z,34.1
2018-01-03T02:43:40.333Z,34.1
2018-01-03T02:44:41.717Z,34.1
2018-01-03T02:45:43.107Z,34.0
2018-01-03T02:46:44.495Z,34.1
2018-01-03T02:47:45.881Z,34.2
2018-01-03T02:48:47.270Z,33.8
2018-01-03T02:49:48.658Z,33.7
2018-01-03T02:50:50.053Z,33.9
2018-01-03T02:51:51.434Z,34.0
2018-01-03T02:52:52.831Z,34.2
2018-01-03T02:53:54.217Z,34.1
2018-01-03T02:54:55.605Z,33.9
2018-01-03T02:55:56.989Z,33.9
2018-01-03T02:56:58.377Z,34.1
2018-01-03T02:57:59.763Z,34.1
2018-01-03T02:59:01.154Z,34.2
2018-01-03T03:00:02.546Z,34.2
2018-01-03T03:01:03.936Z,34.0
2018-01-03T03:02:05.336Z,33.9
2018-01-03T03:03:06.720Z,33.9
2018-01-03T03:04:08.106Z,34.0
2018-01-03T03:05:09.496Z,34.2
2018-01-03T03:06:10.886Z,34.1
2018-01-03T03:07:12.276Z,33.9
2018-01-03T03:08:13.668Z,34.1
2018-01-03T03:09:15.055Z,33.9
2018-01-03T03:10:16.439Z,33.8
2018-01-03T03:11:17.826Z,33.9
2018-01-03T03:12:19.220Z,33.6
2018-01-03T03:13:20.606Z,33.8
2018-01-03T03:14:21.999Z,34.1
2018-01-03T03:15:23.392Z,34.3
2018-01-03T03:16:24.780Z,34.2
2018-01-03T03:17:26.169Z,34.0
2018-01-03T03:18:27.563Z,34.1
2018-01-03T03:19:28.949Z,34.2
2018-01-03T03:20:30.339Z,35.0
2018-01-03T03:21:31.725Z,34.2
2018-01-03T03:22:33.117Z,34.3
2018-01-03T03:23:34.506Z,34.9
2018-01-03T03:24:35.893Z,34.3
2018-01-03T03:25:37.283Z,34.2
2018-01-03T03:26:38.672Z,34.3
2018-01-03T03:27:40.066Z,34.2
2018-01-03T03:28:41.452Z,33.9
2018-01-03T03:29:42.842Z,34.2
2018-01-03T03:30:44.232Z,34.1
2018-01-03T03:31:45.614Z,34.1
2018-01-03T03:32:47.004Z,34.2
2018-01-03T03:33:48.394Z,34.2
2018-01-03T03:34:49.783Z,34.1
2018-01-03T03:35:51.175Z,34.1
2018-01-03T03:36:52.566Z,34.4
2018-01-03T03:37:53.952Z,34.2
2018-01-03T03:38:55.341Z,34.1
2018-01-03T03:39:56.731Z,34.4
2018-01-03T03:40:58.121Z,34.0
2018-01-03T03:42:00.424Z,34.1
2018-01-03T03:43:01.812Z,34.1
2018-01-03T03:44:03.202Z,34.4
2018-01-03T03:45:04.592Z,34.3
2018-01-03T03:46:05.981Z,34.3
2018-01-03T03:47:07.368Z,34.4
2018-01-03T03:48:08.757Z,34.8
2018-01-03T03:49:10.147Z,34.2
2018-01-03T03:50:11.538Z,34.3
2018-01-03T03:51:12.929Z,34.3
2018-01-03T03:52:14.314Z,34.3
2018-01-03T03:53:15.705Z,34.2
2018-01-03T03:54:17.092Z,34.2
2018-01-03T03:55:18.484Z,34.2
2018-01-03T03:56:19.874Z,34.1
2018-01-03T03:57:21.261Z,35.0
2018-01-03T03:58:22.653Z,34.2
2018-01-03T03:59:24.039Z,34.4
2018-01-03T04:00:25.429Z,35.0
2018-01-03T04:01:26.820Z,34.9
2018-01-03T04:02:28.205Z,34.3
2018-01-03T04:03:29.597Z,34.3
2018-01-03T04:04:30.986Z,34.4
2018-01-03T04:05:32.377Z,34.9
2018-01-03T04:06:33.767Z,34.7
2018-01-03T04:07:35.156Z,34.3
2018-01-03T04:08:36.548Z,35.0
2018-01-03T04:09:37.933Z,34.4
2018-01-03T04:10:39.322Z,34.4
2018-01-03T04:11:40.714Z,34.3
2018-01-03T04:12:42.107Z,34.2
2018-01-03T04:13:43.494Z,34.2
2018-01-03T04:14:44.880Z,34.2
2018-01-03T04:15:46.271Z,34.3
2018-01-03T04:16:47.660Z,35.0
2018-01-03T04:17:49.049Z,34.1
2018-01-03T04:18:50.437Z,34.8
2018-01-03T04:19:51.828Z,34.6
2018-01-03T04:20:53.214Z,34.3
2018-01-03T04:21:54.606Z,34.3
2018-01-03T04:22:55.991Z,34.5
2018-01-03T04:23:57.378Z,34.9
2018-01-03T04:24:58.768Z,34.8
2018-01-03T04:26:00.157Z,34.6
2018-01-03T04:27:01.569Z,34.8
2018-01-03T04:28:02.954Z,34.3
2018-01-03T04:29:04.338Z,34.5
2018-01-03T04:30:05.729Z,34.9
2018-01-03T04:31:07.117Z,34.2
2018-01-03T04:32:08.510Z,34.1
2018-01-03T04:33:09.901Z,34.9
2018-01-03T04:34:11.292Z,34.9
2018-01-03T04:35:12.678Z,34.5
2018-01-03T04:36:14.068Z,34.6
2018-01-03T04:37:15.457Z,34.9
2018-01-03T04:38:16.849Z,34.6
2018-01-03T04:39:18.224Z,35.0
2018-01-03T04:40:19.608Z,34.7
2018-01-03T04:41:20.991Z,34.7
2018-01-03T04:42:22.382Z,34.9
2018-01-03T04:43:23.770Z,34.4
2018-01-03T04:44:25.146Z,34.9
2018-01-03T04:45:26.527Z,34.3
2018-01-03T04:46:27.916Z,34.2
2018-01-03T04:47:29.299Z,34.8
2018-01-03T04:48:30.681Z,34.2
2018-01-03T04:49:32.058Z,34.7
2018-01-03T04:50:33.437Z,34.1
2018-01-03T04:51:34.821Z,35.0
2018-01-03T04:52:36.198Z,34.7
2018-01-03T04:53:37.580Z,34.7
2018-01-03T04:54:38.957Z,34.7
2018-01-03T04:55:40.344Z,34.6
2018-01-03T04:56:41.716Z,34.5
2018-01-03T04:57:43.099Z,34.5
2018-01-03T04:58:44.481Z,34.7
2018-01-03T04:59:45.858Z,34.5
2018-01-03T05:00:47.244Z,34.9
2018-01-03T05:01:48.620Z,34.4
2018-01-03T05:02:49.997Z,34.9
2018-01-03T05:03:51.377Z,34.9
2018-01-03T05:04:52.759Z,34.8
2018-01-03T05:05:54.137Z,34.9
2018-01-03T05:06:55.519Z,34.6
2018-01-03T05:07:56.903Z,34.4
2018-01-03T05:08:58.287Z,34.7
2018-01-03T05:09:59.672Z,34.6
2018-01-03T05:11:01.057Z,34.5
2018-01-03T05:12:02.433Z,34.2
2018-01-03T05:13:03.807Z,34.3
2018-01-03T05:14:05.194Z,34.3
2018-01-03T05:15:06.577Z,34.7
2018-01-03T05:16:07.955Z,34.5
2018-01-03T05:17:09.341Z,34.7
2018-01-03T05:18:10.715Z,34.8
2018-01-03T05:19:12.093Z,34.7
2018-01-03T05:20:13.472Z,34.5
2018-01-03T05:21:14.857Z,34.6
2018-01-03T05:22:16.239Z,34.7
2018-01-03T05:23:17.627Z,34.7
2018-01-03T05:24:19.000Z,34.5
2018-01-03T05:25:20.377Z,34.6
2018-01-03T05:26:21.760Z,34.6
2018-01-03T05:27:24.025Z,34.5
2018-01-03T05:28:25.405Z,34.7
2018-01-03T05:29:26.787Z,34.7
2018-01-03T05:30:28.170Z,34.6
2018-01-03T05:31:29.558Z,34.4
2018-01-03T05:32:30.938Z,34.7
2018-01-03T05:33:32.320Z,34.6
2018-01-03T05:34:33.717Z,34.7
2018-01-03T05:35:35.075Z,34.8
2018-01-03T05:36:36.464Z,34.6
2018-01-03T05:37:37.839Z,34.9
2018-01-03T05:38:39.222Z,34.8
2018-01-03T05:39:40.606Z,34.8
2018-01-03T05:40:41.984Z,34.7
2018-01-03T05:41:43.366Z,34.8
2018-01-03T05:42:44.750Z,34.7
2018-01-03T05:43:46.140Z,34.3
2018-01-03T05:44:47.521Z,34.6
2018-01-03T05:45:48.896Z,34.7
2018-01-03T05:46:50.273Z,34.7
2018-01-03T05:47:51.657Z,34.5
2018-01-03T05:48:53.036Z,34.7
2018-01-03T05:49:54.419Z,34.7
2018-01-03T05:50:55.794Z,34.6
2018-01-03T05:51:57.188Z,34.7
2018-01-03T05:52:58.571Z,34.6
2018-01-03T05:53:59.947Z,34.8
2018-01-03T05:55:01.324Z,34.4
2018-01-03T05:56:02.707Z,34.4
2018-01-03T05:57:04.082Z,34.9
2018-01-03T05:58:05.466Z,34.8
2018-01-03T05:59:06.840Z,34.6
2018-01-03T06:00:08.229Z,34.7
2018-01-03T06:01:09.630Z,34.7
2018-01-03T06:02:10.987Z,34.6
2018-01-03T06:03:12.368Z,34.7
2018-01-03T06:04:13.753Z,34.7
2018-01-03T06:05:15.132Z,34.6
2018-01-03T06:06:16.519Z,34.5
2018-01-03T06:07:17.891Z,34.5
2018-01-03T06:08:19.273Z,34.6
2018-01-03T06:09:20.654Z,34.6
2018-01-03T06:10:22.033Z,34.8
2018-01-03T06:11:23.419Z,34.8
2018-01-03T06:12:24.786Z,34.6
2018-01-03T06:13:26.180Z,34.5
2018-01-03T06:14:27.549Z,34.5
2018-01-03T06:15:28.934Z,34.9
2018-01-03T06:16:30.307Z,34.7
2018-01-03T06:17:31.692Z,34.6
2018-01-03T06:18:33.074Z,34.7
2018-01-03T06:19:34.458Z,34.6
2018-01-03T06:20:35.849Z,34.7
2018-01-03T06:21:37.229Z,34.6
2018-01-03T06:22:38.608Z,35.0
2018-01-03T06:23:39.988Z,35.0
2018-01-03T06:24:41.367Z,35.0
2018-01-03T06:25:42.753Z,34.6
2018-01-03T06:26:44.134Z,34.8
2018-01-03T06:27:45.511Z,35.0
2018-01-03T06:28:46.892Z,35.1
2018-01-03T06:29:48.274Z,35.0
2018-01-03T06:30:49.653Z,35.0
2018-01-03T06:31:51.037Z,34.9
2018-01-03T06:32:52.416Z,34.9
2018-01-03T06:33:53.788Z,34.9
2018-01-03T06:34:55.168Z,34.9
2018-01-03T06:35:56.555Z,35.0
2018-01-03T06:36:57.938Z,35.2
2018-01-03T06:37:59.316Z,35.3
2018-01-03T06:39:00.708Z,34.9
2018-01-03T06:40:02.106Z,35.2
2018-01-03T06:41:03.495Z,35.1
2018-01-03T06:42:04.885Z,35.2
2018-01-03T06:43:06.277Z,35.1
2018-01-03T06:44:07.665Z,35.2
2018-01-03T06:45:09.053Z,35.0
2018-01-03T06:46:10.444Z,35.1
2018-01-03T06:47:11.838Z,35.4
2018-01-03T06:48:13.228Z,35.0
2018-01-03T06:49:14.618Z,35.2
2018-01-03T06:50:16.021Z,35.4
2018-01-03T06:51:17.405Z,36.0
2018-01-03T06:52:18.795Z,35.3
2018-01-03T06:53:20.186Z,35.8
2018-01-03T06:54:21.574Z,35.9
2018-01-03T06:55:22.964Z,35.9
2018-01-03T06:56:24.353Z,35.8
2018-01-03T06:57:25.742Z,35.8
2018-01-03T06:58:27.130Z,35.9
2018-01-03T06:59:28.520Z,35.9
2018-01-03T07:00:29.910Z,35.9
2018-01-03T07:01:31.303Z,35.9
2018-01-03T07:02:32.692Z,35.9
2018-01-03T07:03:34.138Z,35.8
2018-01-03T07:04:35.478Z,35.8
2018-01-03T07:05:36.866Z,35.6
2018-01-03T07:06:38.259Z,35.6
2018-01-03T07:07:39.650Z,35.9
2018-01-03T07:08:41.042Z,35.8
2018-01-03T07:09:42.425Z,35.5
2018-01-03T07:10:43.817Z,35.9
2018-01-03T07:11:45.206Z,35.6
2018-01-03T07:12:46.592Z,35.7
2018-01-03T07:13:47.981Z,35.8
2018-01-03T07:14:49.369Z,35.7
2018-01-03T07:15:50.757Z,36.2
2018-01-03T07:16:52.147Z,36.0
2018-01-03T07:17:53.542Z,35.6
2018-01-03T07:18:54.934Z,35.6
2018-01-03T07:19:56.319Z,35.9
2018-01-03T07:20:57.708Z,35.8
2018-01-03T07:21:59.096Z,36.3
2018-01-03T07:23:00.485Z,36.6
2018-01-03T07:24:01.875Z,36.7
2018-01-03T07:25:03.257Z,37.3
2018-01-03T07:26:04.636Z,37.4
2018-01-03T07:27:06.018Z,37.4
2018-01-03T07:28:07.397Z,37.6
2018-01-03T07:29:08.796Z,37.9
2018-01-03T07:30:10.176Z,37.7
2018-01-03T07:31:11.571Z,38.2
2018-01-03T07:32:12.962Z,38.0
2018-01-03T07:33:14.350Z,37.9
2018-01-03T07:34:15.741Z,37.6
2018-01-03T07:35:17.128Z,37.8
2018-01-03T07:36:18.508Z,38.0
2018-01-03T07:37:19.902Z,38.0
2018-01-03T07:38:21.298Z,37.9
2018-01-03T07:39:22.688Z,38.0
2018-01-03T07:40:24.092Z,37.7
2018-01-03T07:41:25.481Z,37.8
2018-01-03T07:42:26.866Z,37.4
2018-01-03T07:43:28.258Z,37.8
2018-01-03T07:44:29.645Z,37.8
2018-01-03T07:45:31.061Z,37.7
2018-01-03T07:46:32.435Z,37.9
2018-01-03T07:47:33.813Z,37.5
2018-01-03T07:48:35.197Z,37.8
2018-01-03T07:49:36.582Z,37.4
2018-01-03T07:50:37.972Z,37.7
2018-01-03T07:51:39.367Z,37.7
2018-01-03T07:52:40.767Z,37.6
2018-01-03T07:53:42.164Z,37.7
2018-01-03T07:54:43.555Z,37.6
2018-01-03T07:55:44.940Z,37.5
2018-01-03T07:56:46.329Z,37.4
2018-01-03T07:57:47.723Z,37.6
2018-01-03T07:58:49.100Z,37.9
2018-01-03T07:59:50.515Z,37.6
